Time;durP1;ratioP1;P1;durP2;ratioP2;P2;SDS_P1;SDS_P2;PMS_P1;PMS_P2;Temp;Humidity;BMP_temperature;BMP_pressure;BME280_temperature;BME280_humidity;BME280_pressure;Samples;Min_cycle;Max_cycle;Signal;HPM_P1;HPM_P2
2022/06/16 00:01:46;;;;;;;5.32;3.05;;;15.50;99.90;;;;;;5048782;28;20048;-77
2022/06/16 00:04:11;;;;;;;5.50;2.75;;;15.50;99.90;;;;;;5047368;28;20044;-77
2022/06/16 00:06:37;;;;;;;6.50;2.92;;;15.50;99.90;;;;;;5046043;28;20044;-76
2022/06/16 00:09:03;;;;;;;6.22;3.08;;;15.50;99.90;;;;;;5048859;28;20115;-77
2022/06/16 00:11:28;;;;;;;5.68;2.70;;;15.50;99.90;;;;;;5048752;28;20029;-77
2022/06/16 00:13:54;;;;;;;7.03;3.00;;;15.30;99.90;;;;;;5047048;28;20128;-77
2022/06/16 00:16:21;;;;;;;5.90;2.83;;;15.40;99.90;;;;;;5046052;28;20068;-76
2022/06/16 00:18:49;;;;;;;6.13;3.45;;;15.40;99.90;;;;;;5043176;28;20047;-77
2022/06/16 00:21:16;;;;;;;6.05;3.03;;;15.30;99.90;;;;;;5047484;28;20601;-77
2022/06/16 00:23:41;;;;;;;4.72;3.08;;;15.30;99.90;;;;;;5046066;28;20059;-77
2022/06/16 00:26:15;;;;;;;6.93;2.90;;;15.30;99.90;;;;;;5045872;28;20040;-76
2022/06/16 00:28:42;;;;;;;6.22;3.10;;;15.10;99.90;;;;;;5046814;28;20045;-76
2022/06/16 00:31:09;;;;;;;6.45;2.65;;;15.10;99.90;;;;;;5047630;28;20112;-77
2022/06/16 00:33:34;;;;;;;5.68;2.80;;;15.00;99.90;;;;;;5047365;28;20045;-77
2022/06/16 00:36:00;;;;;;;4.80;2.60;;;15.00;99.90;;;;;;5044101;28;20513;-76
2022/06/16 00:38:26;;;;;;;6.03;2.63;;;15.00;99.90;;;;;;5045383;28;20044;-76
2022/06/16 00:40:52;;;;;;;5.38;2.60;;;15.00;99.90;;;;;;5046749;28;20045;-76
2022/06/16 00:43:18;;;;;;;4.47;2.40;;;15.10;99.90;;;;;;5046033;28;20166;-76
2022/06/16 00:45:53;;;;;;;3.80;2.45;;;15.10;99.90;;;;;;5046016;28;20112;-77
2022/06/16 00:48:36;;;;;;;6.15;2.60;;;15.10;99.90;;;;;;5045539;28;20059;-76
2022/06/16 00:51:11;;;;;;;4.78;2.42;;;15.10;99.90;;;;;;5045865;28;20033;-77
2022/06/16 00:53:39;;;;;;;5.95;2.45;;;14.90;99.90;;;;;;5043843;28;20033;-76
2022/06/16 00:56:06;;;;;;;4.72;2.70;;;14.90;99.90;;;;;;5045028;28;20033;-77
2022/06/16 00:58:34;;;;;;;5.03;2.38;;;14.80;99.90;;;;;;5046036;28;20060;-76
2022/06/16 01:00:59;;;;;;;8.68;2.60;;;14.70;99.90;;;;;;5045672;28;20175;-77
2022/06/16 01:06:17;;;;;;;;;;;14.60;99.90;;;;;;5043042;28;20052;-76
2022/06/16 01:08:43;;;;;;;4.85;2.45;;;14.60;99.90;;;;;;5062664;28;19927;-76
2022/06/16 01:13:41;;;;;;;4.72;2.42;;;14.50;99.90;;;;;;5045024;28;20059;-76
2022/06/16 01:14:15;;;;;;;4.57;2.28;;;14.50;99.90;;;;;;5044621;28;20043;-76
2022/06/16 01:16:46;;;;;;;3.75;2.30;;;14.40;99.90;;;;;;5044676;28;20051;-76
2022/06/16 01:19:27;;;;;;;5.50;2.50;;;14.20;99.90;;;;;;5046716;28;20067;-77
2022/06/16 01:21:56;;;;;;;6.80;2.67;;;14.00;99.90;;;;;;5048617;28;20040;-77
2022/06/16 01:24:22;;;;;;;4.35;2.30;;;13.90;99.90;;;;;;5045021;28;20487;-76
2022/06/16 01:27:15;;;;;;;4.55;2.70;;;13.90;99.90;;;;;;5046268;28;20102;-76
2022/06/16 01:30:02;;;;;;;4.18;2.40;;;14.10;99.90;;;;;;5029953;28;20613;-77
2022/06/16 01:32:37;;;;;;;5.53;2.60;;;14.20;99.90;;;;;;5045597;28;20040;-76
2022/06/16 01:35:21;;;;;;;4.97;3.20;;;14.20;99.90;;;;;;5027068;28;20041;-76
2022/06/16 01:37:47;;;;;;;;;;;14.10;99.90;;;;;;5045019;28;20037;-77
2022/06/16 01:40:34;;;;;;;4.88;2.53;;;14.00;99.90;;;;;;5045171;28;19917;-76
2022/06/16 01:43:25;;;;;;;5.97;2.85;;;14.00;99.90;;;;;;5044854;28;20123;-76
2022/06/16 01:46:03;;;;;;;4.18;2.67;;;14.10;99.90;;;;;;5045028;28;20040;-76
2022/06/16 01:48:32;;;;;;;4.60;2.72;;;14.10;99.90;;;;;;5045794;28;20048;-77
2022/06/16 01:51:21;;;;;;;5.10;2.72;;;14.10;99.90;;;;;;5043350;28;20032;-77
2022/06/16 01:53:53;;;;;;;4.93;2.70;;;14.30;99.90;;;;;;5060135;28;20041;-76
2022/06/16 01:56:37;;;;;;;6.40;2.90;;;14.20;99.90;;;;;;5043050;28;20112;-76
2022/06/16 01:59:08;;;;;;;4.95;2.50;;;14.30;99.90;;;;;;5044881;28;20895;-76
2022/06/16 02:01:41;;;;;;;4.13;2.65;;;14.40;99.90;;;;;;5047377;28;20053;-77
2022/06/16 02:04:16;;;;;;;4.40;2.53;;;14.40;99.90;;;;;;5044872;28;20048;-76
2022/06/16 02:06:47;;;;;;;6.88;3.20;;;14.40;99.90;;;;;;5044978;28;20037;-76
2022/06/16 02:09:18;;;;;;;5.35;2.72;;;14.40;99.90;;;;;;5044973;28;20040;-76
2022/06/16 02:11:45;;;;;;;4.97;2.55;;;14.40;99.90;;;;;;5044235;28;20491;-77
2022/06/16 02:14:28;;;;;;;5.97;3.00;;;14.50;99.90;;;;;;5044640;28;20041;-76
2022/06/16 02:16:54;;;;;;;3.75;2.55;;;14.50;99.90;;;;;;5039752;28;20123;-77
2022/06/16 02:19:24;;;;;;;4.85;2.90;;;14.50;99.90;;;;;;5045523;28;20503;-76
2022/06/16 02:21:51;;;;;;;6.00;2.90;;;14.60;99.90;;;;;;5040554;28;20120;-76
2022/06/16 02:24:19;;;;;;;4.82;2.92;;;14.50;99.90;;;;;;5049128;28;20119;-76
2022/06/16 02:26:46;;;;;;;4.82;2.60;;;14.30;99.90;;;;;;5044643;28;20029;-76
2022/06/16 02:29:22;;;;;;;4.65;2.60;;;14.10;99.90;;;;;;5043906;28;20036;-76
2022/06/16 02:32:25;;;;;;;5.63;2.60;;;14.00;99.90;;;;;;5041118;28;20041;-76
2022/06/16 02:35:13;;;;;;;4.35;2.67;;;13.90;99.90;;;;;;5044087;28;20040;-76
2022/06/16 02:37:38;;;;;;;6.65;2.85;;;13.70;99.90;;;;;;5044611;28;20040;-76
2022/06/16 02:40:41;;;;;;;4.28;2.85;;;13.70;99.90;;;;;;5044621;28;20041;-76
2022/06/16 02:43:40;;;;;;;6.47;2.97;;;13.80;99.90;;;;;;5043410;28;20041;-76
2022/06/16 02:46:28;;;;;;;5.57;2.72;;;13.80;99.90;;;;;;5042200;28;20041;-76
2022/06/16 02:49:19;;;;;;;5.20;3.17;;;13.70;99.90;;;;;;5043455;28;20041;-76
2022/06/16 02:52:06;;;;;;;5.80;3.30;;;13.70;99.90;;;;;;5043923;28;20445;-76
2022/06/16 02:54:55;;;;;;;5.75;3.30;;;13.70;99.90;;;;;;5040924;28;20119;-76
2022/06/16 02:57:30;;;;;;;6.47;3.40;;;13.70;99.90;;;;;;5042948;28;20079;-76
2022/06/16 02:59:59;;;;;;;6.25;3.17;;;13.70;99.90;;;;;;5042849;28;20051;-76
2022/06/16 03:02:26;;;;;;;7.20;3.10;;;13.80;99.90;;;;;;5030278;28;20110;-76
2022/06/16 03:04:54;;;;;;;4.97;3.00;;;13.80;99.90;;;;;;5043429;28;20045;-76
2022/06/16 03:07:20;;;;;;;4.53;3.25;;;13.80;99.90;;;;;;5040792;28;20465;-76
2022/06/16 03:09:46;;;;;;;7.28;3.67;;;13.80;99.90;;;;;;5044661;28;20041;-76
2022/06/16 03:12:14;;;;;;;5.75;3.28;;;13.60;99.90;;;;;;5043032;28;20543;-77
2022/06/16 03:14:40;;;;;;;6.28;3.28;;;13.50;99.90;;;;;;5042594;28;20037;-75
2022/06/16 03:17:07;;;;;;;7.20;3.50;;;13.50;99.90;;;;;;5042882;28;20028;-76
2022/06/16 03:19:33;;;;;;;8.43;3.10;;;13.40;99.90;;;;;;5044965;28;20036;-76
2022/06/16 03:21:58;;;;;;;5.45;3.35;;;13.30;99.90;;;;;;5045133;28;20587;-76
2022/06/16 03:24:24;;;;;;;5.05;2.60;;;13.20;99.90;;;;;;5042494;28;20051;-76
2022/06/16 03:26:50;;;;;;;6.03;2.72;;;13.10;99.90;;;;;;5046670;28;20414;-76
2022/06/16 03:29:16;;;;;;;8.20;3.15;;;13.00;99.90;;;;;;5044149;28;20037;-76
2022/06/16 03:31:41;;;;;;;4.43;3.00;;;12.90;99.90;;;;;;5043622;28;20106;-76
2022/06/16 03:34:07;;;;;;;5.90;3.50;;;12.90;99.90;;;;;;5045351;28;20041;-76
2022/06/16 03:36:34;;;;;;;5.18;3.83;;;12.90;99.90;;;;;;5047159;28;20095;-76
2022/06/16 03:39:01;;;;;;;8.05;4.05;;;12.90;99.90;;;;;;5048312;28;20076;-76
2022/06/16 03:41:27;;;;;;;6.40;3.88;;;12.90;99.90;;;;;;5047347;28;20072;-76
2022/06/16 03:43:53;;;;;;;7.97;4.57;;;12.90;99.90;;;;;;5046542;28;20043;-77
2022/06/16 03:46:19;;;;;;;7.65;4.40;;;12.80;99.90;;;;;;5047763;28;20123;-76
2022/06/16 03:48:44;;;;;;;5.38;4.03;;;12.80;99.90;;;;;;5052499;28;20071;-77
2022/06/16 03:51:10;;;;;;;7.75;4.30;;;12.80;99.90;;;;;;5031717;28;20049;-77
2022/06/16 03:53:37;;;;;;;5.57;4.03;;;12.70;99.90;;;;;;5048349;28;20037;-77
2022/06/16 03:56:04;;;;;;;9.23;4.53;;;12.80;99.90;;;;;;5046606;28;20037;-76
2022/06/16 03:58:29;;;;;;;8.30;4.30;;;12.80;99.90;;;;;;5030516;28;20045;-77
2022/06/16 04:00:55;;;;;;;7.50;4.68;;;12.90;99.90;;;;;;5047138;28;20039;-76
2022/06/16 04:06:06;;;;;;;5.40;4.03;;;13.10;99.90;;;;;;5045772;28;20036;-77
2022/06/16 04:08:32;;;;;;;6.93;4.07;;;13.20;99.90;;;;;;5047704;28;20434;-77
2022/06/16 04:10:57;;;;;;;6.72;4.18;;;13.20;99.90;;;;;;5061419;28;20033;-76
2022/06/16 04:13:23;;;;;;;7.28;4.13;;;13.40;99.90;;;;;;5048118;28;20529;-77
2022/06/16 04:15:52;;;;;;;5.60;3.90;;;13.50;99.90;;;;;;5045532;28;20094;-77
2022/06/16 04:18:21;;;;;;;6.63;3.92;;;13.60;99.90;;;;;;5047163;28;20605;-77
2022/06/16 04:20:47;;;;;;;7.57;4.15;;;13.80;99.90;;;;;;5048126;28;20040;-77
2022/06/16 04:23:13;;;;;;;5.78;4.00;;;13.90;99.90;;;;;;5046813;28;20037;-77
2022/06/16 04:25:39;;;;;;;6.10;3.90;;;14.00;99.90;;;;;;5045743;28;20490;-77
2022/06/16 04:28:07;;;;;;;8.82;4.35;;;14.00;99.90;;;;;;5048494;28;20037;-77
2022/06/16 04:30:33;;;;;;;6.72;4.30;;;14.10;99.90;;;;;;5046455;28;20073;-78
2022/06/16 04:32:59;;;;;;;7.00;4.25;;;14.20;99.90;;;;;;5047292;28;20043;-77
2022/06/16 04:35:26;;;;;;;9.63;4.30;;;14.30;99.90;;;;;;5047522;28;20029;-77
2022/06/16 04:37:53;;;;;;;7.35;4.45;;;14.40;99.90;;;;;;5046238;28;20099;-77
2022/06/16 04:40:19;;;;;;;10.00;4.68;;;14.50;99.90;;;;;;5046892;28;20037;-78
2022/06/16 04:42:45;;;;;;;12.07;4.45;;;14.60;99.90;;;;;;5029085;28;20043;-77
2022/06/16 04:45:11;;;;;;;8.02;4.50;;;14.70;99.90;;;;;;5046262;28;20399;-78
2022/06/16 04:47:38;;;;;;;6.53;4.28;;;14.80;99.90;;;;;;5045887;28;20037;-77
2022/06/16 04:50:05;;;;;;;8.55;4.40;;;14.90;99.90;;;;;;5046489;28;20032;-78
2022/06/16 04:52:31;;;;;;;7.60;4.20;;;14.90;99.90;;;;;;5029624;28;20510;-77
2022/06/16 04:54:56;;;;;;;7.90;4.18;;;14.90;99.90;;;;;;5046688;28;20082;-77
2022/06/16 04:57:22;;;;;;;7.47;4.10;;;15.10;99.90;;;;;;5045735;28;20033;-77
2022/06/16 04:59:47;;;;;;;6.45;3.70;;;15.20;99.90;;;;;;5044276;28;20150;-77
2022/06/16 05:02:13;;;;;;;6.88;4.18;;;15.40;99.90;;;;;;5048762;28;20461;-77
2022/06/16 05:04:39;;;;;;;7.28;4.00;;;15.40;99.90;;;;;;5046029;28;20049;-77
2022/06/16 05:07:06;;;;;;;9.60;4.47;;;15.40;99.90;;;;;;5045672;28;20048;-77
2022/06/16 05:09:31;;;;;;;9.35;4.13;;;15.30;99.90;;;;;;5045261;28;20045;-77
2022/06/16 05:11:57;;;;;;;6.65;4.30;;;15.20;99.90;;;;;;5047367;28;20048;-77
2022/06/16 05:14:23;;;;;;;7.18;4.03;;;15.20;99.90;;;;;;5047315;28;20128;-77
2022/06/16 05:16:49;;;;;;;8.32;4.35;;;15.10;99.90;;;;;;5045263;28;20041;-77
2022/06/16 05:19:15;;;;;;;7.53;3.88;;;15.10;99.90;;;;;;5044285;28;20044;-77
2022/06/16 05:21:40;;;;;;;8.77;5.45;;;15.10;99.90;;;;;;5045882;28;20040;-78
2022/06/16 05:24:06;;;;;;;9.52;4.68;;;15.10;99.90;;;;;;5047038;28;20090;-78
2022/06/16 05:26:31;;;;;;;7.15;4.97;;;15.10;99.90;;;;;;5046642;28;20045;-78
2022/06/16 05:28:57;;;;;;;10.23;4.75;;;15.10;99.90;;;;;;5048725;28;20507;-78
2022/06/16 05:31:23;;;;;;;9.50;4.70;;;15.10;99.90;;;;;;5046049;28;20070;-77
2022/06/16 05:33:49;;;;;;;8.63;5.20;;;15.10;99.90;;;;;;5045110;28;20044;-78
2022/06/16 05:36:17;;;;;;;6.45;4.00;;;15.20;99.90;;;;;;5045763;28;20029;-78
2022/06/16 05:38:43;;;;;;;5.90;4.30;;;15.40;99.90;;;;;;5045584;28;20123;-77
2022/06/16 05:41:13;;;;;;;5.72;3.90;;;15.60;99.90;;;;;;5043356;28;20128;-77
2022/06/16 05:43:40;;;;;;;7.40;3.40;;;15.70;99.90;;;;;;5045791;28;20041;-77
2022/06/16 05:46:07;;;;;;;5.38;2.97;;;15.90;99.90;;;;;;5043571;28;20048;-78
2022/06/16 05:48:33;;;;;;;8.50;3.42;;;16.00;99.90;;;;;;5043920;28;20060;-77
2022/06/16 05:51:05;;;;;;;7.97;2.97;;;16.00;99.90;;;;;;5045381;28;20068;-77
2022/06/16 05:53:30;;;;;;;6.18;3.25;;;16.00;99.90;;;;;;5044790;28;20041;-77
2022/06/16 05:55:56;;;;;;;6.80;3.50;;;16.10;99.90;;;;;;5043362;28;20941;-77
2022/06/16 05:58:21;;;;;;;6.15;3.83;;;16.10;99.90;;;;;;5044812;28;20028;-77
2022/06/16 06:00:47;;;;;;;7.32;3.90;;;16.20;99.90;;;;;;5045783;28;20043;-77
2022/06/16 06:03:13;;;;;;;8.48;3.90;;;16.30;99.90;;;;;;5030904;28;20139;-77
2022/06/16 06:05:38;;;;;;;7.95;3.25;;;16.40;99.90;;;;;;5044352;28;20043;-78
2022/06/16 06:16:29;;;;;;;7.07;2.90;;;17.10;99.90;;;;;;5045236;28;20124;-77
2022/06/16 06:19:23;;;;;;;4.95;3.10;;;17.30;99.90;;;;;;5044367;28;20655;-77
2022/06/16 06:22:05;;;;;;;6.95;2.90;;;17.50;99.90;;;;;;5042974;28;20048;-78
2022/06/16 06:25:00;;;;;;;9.10;2.97;;;17.60;99.90;;;;;;5043020;28;20045;-77
2022/06/16 06:27:42;;;;;;;3.65;2.53;;;17.60;99.90;;;;;;5044382;28;20069;-77
2022/06/16 06:30:17;;;;;;;8.18;2.85;;;17.70;99.90;;;;;;5044843;28;20064;-77
2022/06/16 06:32:43;;;;;;;7.00;2.95;;;17.70;99.90;;;;;;5049920;28;20126;-77
2022/06/16 06:35:10;;;;;;;7.65;2.67;;;17.60;99.90;;;;;;5033328;28;20668;-78
2022/06/16 06:37:36;;;;;;;6.95;2.85;;;17.60;99.90;;;;;;5045215;28;20048;-79
2022/06/16 06:40:03;;;;;;;5.85;2.88;;;17.50;99.90;;;;;;5045531;28;20044;-77
2022/06/16 06:42:28;;;;;;;8.57;2.60;;;17.50;99.90;;;;;;5045142;28;20462;-77
2022/06/16 06:44:54;;;;;;;6.95;3.03;;;17.60;99.90;;;;;;5044361;28;20044;-77
2022/06/16 06:47:22;;;;;;;6.28;3.10;;;17.90;99.90;;;;;;5043828;28;20079;-77
2022/06/16 06:49:48;;;;;;;5.47;2.50;;;18.00;99.90;;;;;;5044043;28;20036;-76
2022/06/16 06:52:15;;;;;;;4.88;2.50;;;18.20;99.90;;;;;;5043661;28;20037;-78
2022/06/16 06:54:42;;;;;;;4.25;2.20;;;18.30;99.90;;;;;;5044607;28;20131;-77
2022/06/16 06:57:14;;;;;;;5.00;2.50;;;18.50;99.90;;;;;;5044497;28;20044;-77
2022/06/16 06:59:39;;;;;;;8.32;2.42;;;18.60;99.90;;;;;;5048712;28;20049;-77
2022/06/16 07:02:07;;;;;;;5.35;2.50;;;18.60;99.90;;;;;;5048667;28;20090;-77
2022/06/16 07:04:32;;;;;;;4.90;1.90;;;18.60;99.90;;;;;;5027581;28;20045;-78
2022/06/16 07:06:58;;;;;;;6.20;2.10;;;18.70;99.90;;;;;;5044890;28;20529;-76
2022/06/16 07:09:23;;;;;;;5.80;2.42;;;18.90;99.90;;;;;;5031227;28;20044;-78
2022/06/16 07:11:49;;;;;;;4.65;2.40;;;19.00;99.90;;;;;;5047890;28;20112;-77
2022/06/16 07:14:15;;;;;;;5.22;2.08;;;19.10;99.90;;;;;;5045380;28;20060;-77
2022/06/16 07:16:40;;;;;;;6.32;2.00;;;19.10;99.90;;;;;;5049390;28;20029;-78
2022/06/16 07:19:06;;;;;;;6.22;2.20;;;19.00;99.90;;;;;;5048831;28;20041;-77
2022/06/16 07:21:32;;;;;;;3.65;1.92;;;19.10;99.90;;;;;;5048160;28;20037;-77
2022/06/16 07:23:58;;;;;;;4.82;2.22;;;19.20;99.90;;;;;;5046164;28;20036;-78
2022/06/16 07:26:24;;;;;;;8.02;2.05;;;19.20;99.90;;;;;;5048718;28;20083;-77
2022/06/16 07:28:49;;;;;;;6.32;2.20;;;19.10;99.90;;;;;;5048376;28;20490;-77
2022/06/16 07:31:16;;;;;;;5.57;2.22;;;19.20;99.90;;;;;;5047240;28;20101;-77
2022/06/16 07:33:42;;;;;;;4.88;1.90;;;19.30;99.90;;;;;;5047314;28;20075;-77
2022/06/16 07:36:10;;;;;;;7.47;2.38;;;19.40;99.90;;;;;;5047148;28;20040;-77
2022/06/16 07:38:36;;;;;;;6.80;1.83;;;19.30;99.90;;;;;;5047029;28;20045;-77
2022/06/16 07:43:47;;;;;;;6.28;2.50;;;19.20;99.90;;;;;;5044747;28;20503;-77
2022/06/16 07:46:13;;;;;;;5.25;2.28;;;19.00;99.90;;;;;;5031240;28;20029;-77
2022/06/16 07:48:38;;;;;;;4.20;1.90;;;19.20;99.90;;;;;;5048513;28;20109;-77
2022/06/16 07:51:04;;;;;;;5.70;2.30;;;19.10;99.90;;;;;;5047081;28;20032;-77
2022/06/16 07:53:29;;;;;;;5.45;2.30;;;19.20;99.90;;;;;;5029323;28;20517;-77
2022/06/16 07:55:55;;;;;;;7.18;2.20;;;19.20;99.90;;;;;;5048806;28;20041;-77
2022/06/16 07:58:20;;;;;;;4.60;1.70;;;19.30;99.90;;;;;;5033293;28;20115;-77
2022/06/16 08:00:46;;;;;;;4.65;2.00;;;19.50;99.90;;;;;;5047343;28;20130;-78
2022/06/16 08:03:12;;;;;;;4.10;1.95;;;19.70;99.90;;;;;;5047676;28;20052;-76
2022/06/16 08:05:37;;;;;;;6.47;1.77;;;19.60;99.90;;;;;;5043398;28;20909;-77
2022/06/16 08:08:03;;;;;;;5.75;1.60;;;19.70;99.90;;;;;;5035307;28;20446;-76
2022/06/16 08:10:34;;;;;;;5.97;1.80;;;19.80;99.90;;;;;;5051389;28;20100;-77
2022/06/16 08:13:00;;;;;;;5.60;1.38;;;19.80;99.90;;;;;;5052694;28;20068;-77
2022/06/16 08:15:26;;;;;;;4.45;1.60;;;19.80;99.90;;;;;;5051800;28;20076;-77
2022/06/16 08:17:53;;;;;;;4.53;1.60;;;20.00;99.90;;;;;;5033101;28;20180;-78
2022/06/16 08:20:19;;;;;;;3.20;1.42;;;20.20;99.90;;;;;;5048232;28;20072;-76
2022/06/16 08:22:45;;;;;;;5.38;1.60;;;20.20;99.90;;;;;;5042629;28;20080;-77
2022/06/16 08:25:12;;;;;;;4.95;1.58;;;20.50;99.90;;;;;;5051688;28;20044;-76
2022/06/16 08:27:40;;;;;;;3.78;1.58;;;20.70;99.90;;;;;;5052789;28;20118;-76
2022/06/16 08:30:11;;;;;;;3.95;1.90;;;20.80;99.90;;;;;;5051076;28;20052;-76
2022/06/16 08:32:37;;;;;;;3.78;1.70;;;21.00;99.90;;;;;;5051043;28;20254;-76
2022/06/16 08:35:04;;;;;;;4.38;1.70;;;21.10;99.90;;;;;;5046616;28;20533;-76
2022/06/16 08:37:30;;;;;;;4.40;1.83;;;21.30;99.90;;;;;;5030481;28;20078;-76
2022/06/16 08:39:56;;;;;;;6.03;1.83;;;21.20;99.90;;;;;;5050222;28;20508;-77
2022/06/16 08:42:40;;;;;;;3.55;1.95;;;21.00;99.90;;;;;;5051979;28;20036;-76
2022/06/16 08:45:08;;;;;;;3.20;1.70;;;20.80;99.90;;;;;;5051221;28;20049;-76
2022/06/16 08:47:58;;;;;;;3.97;1.80;;;20.80;99.90;;;;;;5052220;28;20045;-75
2022/06/16 08:50:48;;;;;;;4.90;1.98;;;20.80;99.90;;;;;;5051095;28;20095;-75
2022/06/16 08:53:59;;;;;;;3.90;2.03;;;21.20;99.90;;;;;;5051716;28;20083;-76
2022/06/16 08:56:41;;;;;;;3.85;1.90;;;21.50;99.90;;;;;;5052095;28;20067;-75
2022/06/16 08:59:24;;;;;;;5.15;1.80;;;21.80;99.90;;;;;;5051907;28;20090;-76
2022/06/16 09:02:08;;;;;;;6.20;2.00;;;21.80;99.90;;;;;;5051550;28;20529;-76
2022/06/16 09:04:41;;;;;;;4.95;2.10;;;21.80;99.60;;;;;;5034385;28;20055;-76
2022/06/16 09:07:33;;;;;;;5.93;2.58;;;21.60;99.90;;;;;;5050836;28;20123;-76
2022/06/16 09:10:17;;;;;;;4.35;2.20;;;21.30;99.90;;;;;;5049612;28;20060;-77
2022/06/16 09:13:01;;;;;;;5.32;2.50;;;21.30;99.90;;;;;;5051556;28;20037;-76
2022/06/16 09:15:32;;;;;;;5.25;2.33;;;21.30;99.90;;;;;;5050780;28;20506;-76
2022/06/16 09:18:28;;;;;;;4.38;2.30;;;21.50;99.90;;;;;;5051449;28;20060;-76
2022/06/16 09:21:15;;;;;;;5.47;2.20;;;21.70;99.90;;;;;;5051761;28;20399;-75
2022/06/16 09:24:05;;;;;;;5.07;2.30;;;21.90;99.90;;;;;;5052328;28;20048;-75
2022/06/16 09:26:36;;;;;;;5.50;2.55;;;22.00;99.90;;;;;;5051412;28;20045;-76
2022/06/16 09:29:13;;;;;;;4.18;2.20;;;22.10;99.90;;;;;;5034506;28;20055;-75
2022/06/16 09:31:41;;;;;;;4.47;2.30;;;22.10;99.90;;;;;;5050423;28;20119;-76
2022/06/16 09:34:15;;;;;;;3.75;2.15;;;22.20;99.90;;;;;;5033486;28;20060;-75
2022/06/16 09:36:45;;;;;;;5.93;2.42;;;22.30;99.90;;;;;;5051080;28;20041;-76
2022/06/16 09:39:33;;;;;;;5.07;2.40;;;22.10;99.90;;;;;;5049977;28;20124;-75
2022/06/16 09:45:17;;;;;;;4.88;2.40;;;22.20;99.90;;;;;;5050101;28;20059;-75
2022/06/16 09:48:03;;;;;;;4.20;2.55;;;22.20;99.90;;;;;;5050753;28;20045;-75
2022/06/16 09:50:56;;;;;;;5.93;2.30;;;22.30;99.90;;;;;;5050743;28;20048;-76
2022/06/16 09:53:42;;;;;;;4.03;2.47;;;22.40;99.90;;;;;;5030631;28;20508;-76
2022/06/16 09:56:18;;;;;;;8.00;2.70;;;22.40;99.90;;;;;;5043785;28;20040;-76
2022/06/16 09:58:52;;;;;;;6.93;2.65;;;22.40;99.60;;;;;;5050603;28;20041;-76
2022/06/16 10:01:22;;;;;;;6.90;2.95;;;22.40;99.90;;;;;;5047878;28;20064;-78
2022/06/16 10:03:57;;;;;;;4.00;2.80;;;22.40;99.90;;;;;;5049002;28;20627;-78
2022/06/16 10:06:53;;;;;;;6.70;2.80;;;22.00;97.40;;;;;;5050515;28;20040;-78
2022/06/16 10:09:56;;;;;;;4.53;3.10;;;21.90;98.80;;;;;;5049697;28;20099;-78
2022/06/16 10:12:41;;;;;;;5.60;2.70;;;21.60;97.40;;;;;;5060267;28;20072;-78
2022/06/16 10:15:38;;;;;;;7.60;3.00;;;21.70;98.90;;;;;;5049478;28;20281;-77
2022/06/16 10:18:05;;;;;;;7.28;3.03;;;21.70;99.10;;;;;;5050017;28;20068;-78
2022/06/16 10:20:30;;;;;;;6.00;2.97;;;21.80;98.90;;;;;;5048306;28;20075;-77
2022/06/16 10:23:11;;;;;;;4.07;2.83;;;21.80;99.00;;;;;;5047744;28;20040;-77
2022/06/16 10:25:45;;;;;;;4.68;3.00;;;22.00;99.30;;;;;;5049538;28;20061;-80
2022/06/16 10:28:27;;;;;;;5.35;3.00;;;21.90;98.80;;;;;;5043556;28;20041;-77
2022/06/16 10:30:52;;;;;;;5.78;3.22;;;22.00;98.90;;;;;;5047337;28;20048;-77
2022/06/16 10:33:21;;;;;;;5.28;2.90;;;21.90;98.10;;;;;;5048405;28;20048;-80
2022/06/16 10:36:01;;;;;;;6.30;2.55;;;22.00;98.00;;;;;;5042706;28;20037;-77
2022/06/16 10:38:40;;;;;;;18.45;3.65;;;22.10;97.80;;;;;;5043545;28;20060;-77
2022/06/16 10:41:29;;;;;;;5.47;2.83;;;22.40;98.70;;;;;;5048934;28;20036;-80
2022/06/16 10:43:59;;;;;;;4.28;2.80;;;22.50;98.20;;;;;;5046777;28;20380;-78
2022/06/16 10:46:31;;;;;;;5.95;2.95;;;22.40;97.50;;;;;;5046612;28;20441;-79
2022/06/16 10:49:00;;;;;;;5.85;3.33;;;22.30;96.40;;;;;;5050464;28;20523;-80
2022/06/16 10:51:29;;;;;;;5.57;3.08;;;22.40;96.50;;;;;;5050084;28;20068;-80
2022/06/16 10:54:10;;;;;;;6.70;3.28;;;22.10;95.40;;;;;;5048754;28;20033;-79
2022/06/16 10:56:36;;;;;;;5.38;3.00;;;22.20;96.60;;;;;;5049996;28;20041;-77
2022/06/16 10:59:18;;;;;;;4.38;2.65;;;22.30;96.80;;;;;;5050592;28;20128;-78
2022/06/16 11:01:56;;;;;;;7.75;2.90;;;22.60;97.10;;;;;;5050546;28;20491;-81
2022/06/16 11:04:24;;;;;;;5.63;2.92;;;22.70;96.20;;;;;;5048092;28;20498;-78
2022/06/16 11:06:53;;;;;;;4.43;2.70;;;22.70;95.10;;;;;;5049440;28;20040;-78
2022/06/16 11:09:30;;;;;;;5.10;2.72;;;22.70;95.10;;;;;;5033435;28;20503;-79
2022/06/16 11:12:02;;;;;;;6.25;2.78;;;23.00;95.30;;;;;;5049585;28;20079;-79
2022/06/16 11:14:40;;;;;;;4.63;2.55;;;23.30;95.20;;;;;;5030295;28;20529;-79
2022/06/16 11:17:29;;;;;;;5.90;2.60;;;23.50;93.00;;;;;;5049442;28;20554;-80
2022/06/16 11:20:02;;;;;;;5.10;2.75;;;23.50;93.20;;;;;;5048539;28;20110;-79
2022/06/16 11:22:40;;;;;;;8.10;2.97;;;23.40;93.70;;;;;;5049676;28;20043;-81
2022/06/16 11:25:21;;;;;;;5.07;2.92;;;23.50;94.20;;;;;;5048306;28;20123;-80
2022/06/16 11:28:00;;;;;;;5.45;2.65;;;23.40;92.40;;;;;;5031896;28;20049;-78
2022/06/16 11:30:33;;;;;;;4.00;2.60;;;23.60;93.80;;;;;;5049248;28;20045;-79
2022/06/16 11:32:59;;;;;;;3.30;2.60;;;24.00;93.00;;;;;;5029004;28;20034;-80
2022/06/16 11:35:45;;;;;;;3.55;2.55;;;24.00;93.40;;;;;;5031477;28;20041;-79
2022/06/16 11:38:31;;;;;;;5.43;2.72;;;24.10;93.70;;;;;;5048972;28;20494;-81
2022/06/16 11:41:09;;;;;;;4.25;2.60;;;24.10;91.60;;;;;;5025535;28;20041;-79
2022/06/16 11:44:06;;;;;;;4.25;2.60;;;24.10;91.10;;;;;;5044973;28;20499;-81
2022/06/16 11:46:51;;;;;;;5.50;2.65;;;24.10;92.20;;;;;;5043839;28;20522;-78
2022/06/16 11:49:41;;;;;;;6.70;2.90;;;24.10;92.00;;;;;;5042268;28;20266;-78
2022/06/16 11:52:39;;;;;;;5.45;2.70;;;24.00;90.30;;;;;;5049793;28;20103;-80
2022/06/16 11:55:24;;;;;;;3.85;2.50;;;23.90;90.60;;;;;;5045328;28;20040;-79
2022/06/16 11:58:20;;;;;;;4.22;2.50;;;24.40;91.60;;;;;;5049529;28;20120;-79
2022/06/16 12:01:19;;;;;;;5.90;2.33;;;24.30;91.80;;;;;;5028078;28;20049;-79
2022/06/16 12:04:13;;;;;;;4.80;2.85;;;24.40;92.10;;;;;;5025870;28;20121;-78
2022/06/16 12:07:18;;;;;;;4.93;2.60;;;24.50;91.50;;;;;;5049306;28;20041;-77
2022/06/16 12:10:06;;;;;;;4.43;2.40;;;24.90;91.50;;;;;;5051864;28;20114;-79
2022/06/16 12:12:50;;;;;;;4.97;2.40;;;25.20;91.10;;;;;;5050720;28;20654;-77
2022/06/16 12:15:48;;;;;;;4.25;2.47;;;25.20;90.10;;;;;;5035945;28;20526;-78
2022/06/16 12:18:42;;;;;;;4.78;2.97;;;25.10;89.70;;;;;;5052592;28;20041;-80
2022/06/16 12:21:32;;;;;;;5.55;2.72;;;25.10;90.20;;;;;;5053645;28;20059;-78
2022/06/16 12:24:19;;;;;;;5.35;2.75;;;25.20;90.00;;;;;;5049501;28;20542;-80
2022/06/16 12:26:45;;;;;;;6.50;3.03;;;25.30;87.30;;;;;;5039366;28;20082;-78
2022/06/16 12:29:32;;;;;;;7.82;2.80;;;25.10;88.10;;;;;;5054121;28;20516;-79
2022/06/16 12:32:07;;;;;;;6.40;2.88;;;25.10;87.30;;;;;;5048844;28;20037;-76
2022/06/16 12:34:41;;;;;;;5.13;2.70;;;25.40;87.30;;;;;;5053913;28;20129;-78
2022/06/16 12:37:17;;;;;;;4.22;2.40;;;25.10;88.40;;;;;;5052826;28;20048;-77
2022/06/16 12:40:08;;;;;;;10.25;2.92;;;24.80;87.30;;;;;;5052127;28;20414;-78
2022/06/16 12:42:40;;;;;;;6.28;2.80;;;25.10;89.30;;;;;;5051533;28;20536;-78
2022/06/16 12:45:23;;;;;;;5.38;2.60;;;25.20;90.10;;;;;;5052274;28;20144;-79
2022/06/16 12:48:14;;;;;;;4.07;2.70;;;25.20;88.50;;;;;;5049650;28;20491;-79
2022/06/16 12:50:46;;;;;;;6.43;2.58;;;24.90;87.70;;;;;;5038352;28;20495;-80
2022/06/16 12:53:39;;;;;;;5.63;2.40;;;25.10;88.60;;;;;;5050945;28;20479;-80
2022/06/16 12:56:14;;;;;;;4.88;2.50;;;25.00;88.60;;;;;;5045013;28;20502;-77
2022/06/16 12:58:50;;;;;;;5.03;2.97;;;25.00;89.30;;;;;;5049139;28;20091;-80
2022/06/16 13:01:17;;;;;;;4.22;2.88;;;25.20;88.30;;;;;;5049765;28;20124;-76
2022/06/16 13:03:45;;;;;;;5.32;2.85;;;25.20;88.10;;;;;;5047195;28;20087;-78
2022/06/16 13:06:12;;;;;;;6.85;3.10;;;25.20;87.40;;;;;;5052135;28;20041;-77
2022/06/16 13:08:43;;;;;;;4.30;2.50;;;25.10;88.10;;;;;;5050431;28;20395;-77
2022/06/16 13:11:15;;;;;;;5.57;2.22;;;24.90;87.70;;;;;;5046936;28;20436;-77
2022/06/16 13:13:45;;;;;;;5.78;2.70;;;24.70;88.20;;;;;;5050958;28;20091;-77
2022/06/16 13:16:16;;;;;;;6.30;2.35;;;24.70;85.40;;;;;;5052188;28;20033;-78
2022/06/16 13:18:56;;;;;;;5.88;2.97;;;25.20;88.70;;;;;;5053119;28;20606;-80
2022/06/16 13:21:30;;;;;;;5.30;2.33;;;25.30;88.60;;;;;;5051631;28;20052;-77
2022/06/16 13:24:21;;;;;;;5.22;2.58;;;25.30;87.90;;;;;;5051611;28;20501;-78
2022/06/16 13:27:11;;;;;;;7.95;2.45;;;25.40;88.60;;;;;;5051359;28;20505;-79
2022/06/16 13:29:51;;;;;;;5.47;2.50;;;25.70;87.50;;;;;;5051965;28;20077;-78
2022/06/16 13:32:20;;;;;;;11.30;2.50;;;25.60;84.40;;;;;;5051518;28;20111;-77
2022/06/16 13:34:54;;;;;;;5.85;2.25;;;26.10;88.00;;;;;;5050679;28;20518;-79
2022/06/16 13:37:32;;;;;;;5.28;2.35;;;26.40;87.00;;;;;;5053018;28;20394;-77
2022/06/16 13:40:07;;;;;;;3.35;2.40;;;26.10;85.40;;;;;;5051145;28;20041;-78